sensor_id;sensor_type;location;lat;lon;timestamp;pressure;altitude;pressure_sealevel;temperature;humidity
45731;BME280;31440;48.584;13.460;2023-05-28T00:00:33;97061.75;;;13.49;59.20
45731;BME280;31440;48.584;13.460;2023-05-28T00:03:37;97052.78;;;13.55;59.89
45731;BME280;31440;48.584;13.460;2023-05-28T00:06:42;97053.78;;;13.52;59.02
45731;BME280;31440;48.584;13.460;2023-05-28T00:09:46;97052.22;;;13.69;58.59
45731;BME280;31440;48.584;13.460;2023-05-28T00:12:53;97051.56;;;13.64;58.86
45731;BME280;31440;48.584;13.460;2023-05-28T00:15:57;97043.28;;;13.54;58.30
45731;BME280;31440;48.584;13.460;2023-05-28T00:19:02;97047.44;;;13.38;59.47
45731;BME280;31440;48.584;13.460;2023-05-28T00:22:07;97042.75;;;13.66;58.53
45731;BME280;31440;48.584;13.460;2023-05-28T00:25:12;97031.19;;;13.72;58.18
45731;BME280;31440;48.584;13.460;2023-05-28T00:28:17;97030.59;;;13.46;61.69
45731;BME280;31440;48.584;13.460;2023-05-28T00:31:22;97025.50;;;13.43;61.86
45731;BME280;31440;48.584;13.460;2023-05-28T00:34:26;97031.56;;;13.44;61.12
45731;BME280;31440;48.584;13.460;2023-05-28T00:37:31;97032.06;;;13.32;61.20
45731;BME280;31440;48.584;13.460;2023-05-28T00:40:36;97036.69;;;13.25;60.57
45731;BME280;31440;48.584;13.460;2023-05-28T00:43:40;97031.72;;;13.19;60.85
45731;BME280;31440;48.584;13.460;2023-05-28T00:46:45;97035.03;;;13.02;62.15
45731;BME280;31440;48.584;13.460;2023-05-28T00:49:50;97031.84;;;13.16;61.91
45731;BME280;31440;48.584;13.460;2023-05-28T00:52:55;97032.78;;;13.15;62.84
45731;BME280;31440;48.584;13.460;2023-05-28T00:56:00;97029.03;;;13.00;62.81
45731;BME280;31440;48.584;13.460;2023-05-28T00:59:04;97025.78;;;13.15;62.37
45731;BME280;31440;48.584;13.460;2023-05-28T01:02:09;97023.25;;;12.94;63.14
45731;BME280;31440;48.584;13.460;2023-05-28T01:05:14;97019.03;;;13.11;62.54
45731;BME280;31440;48.584;13.460;2023-05-28T01:08:19;97025.31;;;12.64;65.27
45731;BME280;31440;48.584;13.460;2023-05-28T01:11:24;97015.50;;;12.70;65.20
45731;BME280;31440;48.584;13.460;2023-05-28T01:14:30;97014.00;;;12.65;65.60
45731;BME280;31440;48.584;13.460;2023-05-28T01:17:35;97016.72;;;12.62;67.48
45731;BME280;31440;48.584;13.460;2023-05-28T01:20:40;97022.38;;;12.06;71.18
45731;BME280;31440;48.584;13.460;2023-05-28T01:23:45;97025.19;;;11.76;74.62
45731;BME280;31440;48.584;13.460;2023-05-28T01:26:50;97014.84;;;11.75;75.03
45731;BME280;31440;48.584;13.460;2023-05-28T01:29:55;97019.19;;;11.98;74.09
45731;BME280;31440;48.584;13.460;2023-05-28T01:33:01;97008.53;;;12.05;73.88
45731;BME280;31440;48.584;13.460;2023-05-28T01:36:07;97008.94;;;12.40;71.25
45731;BME280;31440;48.584;13.460;2023-05-28T01:39:14;97010.38;;;12.25;71.52
45731;BME280;31440;48.584;13.460;2023-05-28T01:42:19;97008.81;;;12.21;72.31
45731;BME280;31440;48.584;13.460;2023-05-28T01:45:24;97005.91;;;12.05;72.18
45731;BME280;31440;48.584;13.460;2023-05-28T01:48:30;97005.59;;;12.13;69.43
45731;BME280;31440;48.584;13.460;2023-05-28T01:51:35;97001.91;;;12.20;70.82
45731;BME280;31440;48.584;13.460;2023-05-28T01:54:40;97002.84;;;11.94;73.78
45731;BME280;31440;48.584;13.460;2023-05-28T01:57:44;97001.00;;;12.43;71.70
45731;BME280;31440;48.584;13.460;2023-05-28T02:00:52;97002.44;;;12.28;72.65
45731;BME280;31440;48.584;13.460;2023-05-28T02:04:00;96999.19;;;12.23;72.54
45731;BME280;31440;48.584;13.460;2023-05-28T02:07:05;96993.50;;;12.12;71.69
45731;BME280;31440;48.584;13.460;2023-05-28T02:10:10;96997.47;;;11.99;74.33
45731;BME280;31440;48.584;13.460;2023-05-28T02:13:15;96996.94;;;12.12;74.99
45731;BME280;31440;48.584;13.460;2023-05-28T02:16:21;96993.56;;;12.10;73.51
45731;BME280;31440;48.584;13.460;2023-05-28T02:19:27;96997.44;;;11.77;77.10
45731;BME280;31440;48.584;13.460;2023-05-28T02:22:31;96998.66;;;11.90;76.16
45731;BME280;31440;48.584;13.460;2023-05-28T02:25:36;96998.13;;;12.27;74.98
45731;BME280;31440;48.584;13.460;2023-05-28T02:28:40;96996.16;;;11.65;77.84
45731;BME280;31440;48.584;13.460;2023-05-28T02:31:48;96989.69;;;11.52;80.14
45731;BME280;31440;48.584;13.460;2023-05-28T02:34:52;96991.00;;;11.15;82.23
45731;BME280;31440;48.584;13.460;2023-05-28T02:37:59;96993.16;;;11.52;77.82
45731;BME280;31440;48.584;13.460;2023-05-28T02:41:04;96985.97;;;11.82;73.58
45731;BME280;31440;48.584;13.460;2023-05-28T02:44:10;96984.63;;;11.24;82.18
45731;BME280;31440;48.584;13.460;2023-05-28T02:47:15;96987.88;;;11.31;79.65
45731;BME280;31440;48.584;13.460;2023-05-28T02:50:19;96982.72;;;11.29;81.88
45731;BME280;31440;48.584;13.460;2023-05-28T02:53:57;96984.31;;;11.33;81.16
45731;BME280;31440;48.584;13.460;2023-05-28T02:57:02;96982.78;;;11.98;77.14
45731;BME280;31440;48.584;13.460;2023-05-28T03:00:07;96977.19;;;11.85;78.78
45731;BME280;31440;48.584;13.460;2023-05-28T03:03:15;96982.78;;;11.98;77.59
45731;BME280;31440;48.584;13.460;2023-05-28T03:06:21;96983.78;;;11.94;77.87
45731;BME280;31440;48.584;13.460;2023-05-28T03:09:30;96994.50;;;11.63;79.75
45731;BME280;31440;48.584;13.460;2023-05-28T03:12:35;96989.09;;;11.91;77.29
45731;BME280;31440;48.584;13.460;2023-05-28T03:15:40;96988.34;;;12.10;76.60
45731;BME280;31440;48.584;13.460;2023-05-28T03:18:45;96972.84;;;11.62;78.99
45731;BME280;31440;48.584;13.460;2023-05-28T03:21:51;96998.84;;;11.85;78.76
45731;BME280;31440;48.584;13.460;2023-05-28T03:24:58;96991.06;;;11.62;78.94
45731;BME280;31440;48.584;13.460;2023-05-28T03:28:02;96995.47;;;11.83;78.54
45731;BME280;31440;48.584;13.460;2023-05-28T03:31:27;96991.31;;;11.31;82.50
45731;BME280;31440;48.584;13.460;2023-05-28T03:34:32;97003.72;;;11.71;80.48
45731;BME280;31440;48.584;13.460;2023-05-28T03:37:37;96997.91;;;11.40;81.06
45731;BME280;31440;48.584;13.460;2023-05-28T03:40:42;97001.84;;;11.51;81.15
45731;BME280;31440;48.584;13.460;2023-05-28T03:43:47;97011.16;;;11.34;83.74
45731;BME280;31440;48.584;13.460;2023-05-28T03:46:52;96998.56;;;11.22;83.54
45731;BME280;31440;48.584;13.460;2023-05-28T03:49:56;97001.09;;;11.48;81.99
45731;BME280;31440;48.584;13.460;2023-05-28T03:53:04;96997.31;;;11.08;86.01
45731;BME280;31440;48.584;13.460;2023-05-28T03:56:11;96980.41;;;11.45;78.58
45731;BME280;31440;48.584;13.460;2023-05-28T03:59:16;96990.03;;;11.66;78.66
45731;BME280;31440;48.584;13.460;2023-05-28T04:02:22;96992.19;;;11.78;79.43
45731;BME280;31440;48.584;13.460;2023-05-28T04:05:27;96983.59;;;11.76;81.14
45731;BME280;31440;48.584;13.460;2023-05-28T04:08:32;96990.16;;;11.63;83.08
45731;BME280;31440;48.584;13.460;2023-05-28T04:11:36;96995.78;;;11.74;80.83
45731;BME280;31440;48.584;13.460;2023-05-28T04:14:48;97001.97;;;11.72;82.27
45731;BME280;31440;48.584;13.460;2023-05-28T04:17:53;96994.50;;;11.86;81.94
45731;BME280;31440;48.584;13.460;2023-05-28T04:20:58;96974.81;;;11.79;77.90
45731;BME280;31440;48.584;13.460;2023-05-28T04:24:03;97003.91;;;12.12;80.89
45731;BME280;31440;48.584;13.460;2023-05-28T04:27:08;96997.72;;;12.16;80.91
45731;BME280;31440;48.584;13.460;2023-05-28T04:30:13;96998.19;;;12.26;80.36
45731;BME280;31440;48.584;13.460;2023-05-28T04:33:18;96996.75;;;12.18;81.82
45731;BME280;31440;48.584;13.460;2023-05-28T04:36:25;96995.06;;;12.39;79.94
45731;BME280;31440;48.584;13.460;2023-05-28T04:39:33;97000.22;;;12.19;83.45
45731;BME280;31440;48.584;13.460;2023-05-28T04:42:39;97009.91;;;12.37;81.67
45731;BME280;31440;48.584;13.460;2023-05-28T04:45:44;96998.94;;;12.29;84.28
45731;BME280;31440;48.584;13.460;2023-05-28T04:48:49;96991.28;;;12.46;83.81
45731;BME280;31440;48.584;13.460;2023-05-28T04:51:54;96998.03;;;12.52;83.31
45731;BME280;31440;48.584;13.460;2023-05-28T04:54:59;96995.31;;;12.97;79.46
45731;BME280;31440;48.584;13.460;2023-05-28T04:58:04;96997.72;;;12.60;84.16
45731;BME280;31440;48.584;13.460;2023-05-28T05:01:09;97000.75;;;12.71;83.84
45731;BME280;31440;48.584;13.460;2023-05-28T05:04:15;97003.13;;;12.97;80.58
45731;BME280;31440;48.584;13.460;2023-05-28T05:07:21;97001.94;;;13.24;79.94
45731;BME280;31440;48.584;13.460;2023-05-28T05:10:26;97006.66;;;12.96;84.00
45731;BME280;31440;48.584;13.460;2023-05-28T05:13:31;97006.16;;;12.86;86.04
45731;BME280;31440;48.584;13.460;2023-05-28T05:16:36;97004.94;;;13.36;80.69
45731;BME280;31440;48.584;13.460;2023-05-28T05:19:42;97006.50;;;12.99;83.66
45731;BME280;31440;48.584;13.460;2023-05-28T05:22:48;97006.13;;;13.29;80.00
45731;BME280;31440;48.584;13.460;2023-05-28T05:25:52;96994.50;;;13.36;84.30
45731;BME280;31440;48.584;13.460;2023-05-28T05:28:57;96976.25;;;13.56;79.62
45731;BME280;31440;48.584;13.460;2023-05-28T05:32:02;97008.78;;;13.68;81.33
45731;BME280;31440;48.584;13.460;2023-05-28T05:35:07;97008.81;;;13.86;78.21
45731;BME280;31440;48.584;13.460;2023-05-28T05:38:30;97007.13;;;13.85;77.60
45731;BME280;31440;48.584;13.460;2023-05-28T05:41:50;97009.63;;;14.06;79.02
45731;BME280;31440;48.584;13.460;2023-05-28T05:44:57;97001.47;;;13.94;83.16
45731;BME280;31440;48.584;13.460;2023-05-28T05:48:02;97004.84;;;14.34;79.53
45731;BME280;31440;48.584;13.460;2023-05-28T05:51:07;97008.28;;;14.35;84.64
45731;BME280;31440;48.584;13.460;2023-05-28T05:54:12;96998.88;;;14.68;82.84
45731;BME280;31440;48.584;13.460;2023-05-28T05:57:16;97002.03;;;14.75;81.75
45731;BME280;31440;48.584;13.460;2023-05-28T06:00:22;97009.13;;;15.24;80.17
45731;BME280;31440;48.584;13.460;2023-05-28T06:03:31;97005.28;;;15.14;80.24
45731;BME280;31440;48.584;13.460;2023-05-28T06:07:02;97003.09;;;15.40;73.31
45731;BME280;31440;48.584;13.460;2023-05-28T06:10:30;97006.81;;;15.36;75.18
45731;BME280;31440;48.584;13.460;2023-05-28T06:13:36;97000.78;;;16.32;70.40
45731;BME280;31440;48.584;13.460;2023-05-28T06:16:41;97000.84;;;16.31;63.52
45731;BME280;31440;48.584;13.460;2023-05-28T06:19:46;96991.09;;;16.80;68.17
45731;BME280;31440;48.584;13.460;2023-05-28T06:22:54;96994.41;;;16.84;70.18
45731;BME280;31440;48.584;13.460;2023-05-28T06:25:59;96991.72;;;16.38;69.93
45731;BME280;31440;48.584;13.460;2023-05-28T06:29:04;97002.31;;;16.98;67.81
45731;BME280;31440;48.584;13.460;2023-05-28T06:32:11;97000.78;;;16.32;63.08
45731;BME280;31440;48.584;13.460;2023-05-28T06:35:18;97003.41;;;16.64;61.49
45731;BME280;31440;48.584;13.460;2023-05-28T06:38:23;97003.47;;;16.78;60.67
45731;BME280;31440;48.584;13.460;2023-05-28T06:41:27;96991.44;;;16.90;55.85
45731;BME280;31440;48.584;13.460;2023-05-28T06:44:33;97000.94;;;17.51;66.76
45731;BME280;31440;48.584;13.460;2023-05-28T06:47:46;97001.84;;;17.80;58.90
45731;BME280;31440;48.584;13.460;2023-05-28T06:50:50;97000.97;;;17.65;59.78
45731;BME280;31440;48.584;13.460;2023-05-28T06:53:55;96995.56;;;17.96;53.77
45731;BME280;31440;48.584;13.460;2023-05-28T06:57:04;96996.94;;;18.02;56.95
45731;BME280;31440;48.584;13.460;2023-05-28T07:00:21;96996.00;;;18.03;53.33
45731;BME280;31440;48.584;13.460;2023-05-28T07:03:32;96989.91;;;18.85;54.69
45731;BME280;31440;48.584;13.460;2023-05-28T07:06:48;96992.34;;;18.88;55.17
45731;BME280;31440;48.584;13.460;2023-05-28T07:10:01;96989.25;;;18.54;51.20
45731;BME280;31440;48.584;13.460;2023-05-28T07:13:08;96992.41;;;19.26;54.18
45731;BME280;31440;48.584;13.460;2023-05-28T07:16:13;96989.16;;;19.22;52.65
45731;BME280;31440;48.584;13.460;2023-05-28T07:19:18;96988.66;;;19.42;50.21
45731;BME280;31440;48.584;13.460;2023-05-28T07:22:22;96988.50;;;19.58;49.85
45731;BME280;31440;48.584;13.460;2023-05-28T07:25:28;96978.53;;;20.00;51.94
45731;BME280;31440;48.584;13.460;2023-05-28T07:28:33;96985.28;;;20.53;50.58
45731;BME280;31440;48.584;13.460;2023-05-28T07:31:38;96980.88;;;21.36;57.07
45731;BME280;31440;48.584;13.460;2023-05-28T07:34:43;96975.78;;;20.51;49.43
45731;BME280;31440;48.584;13.460;2023-05-28T07:37:49;96981.97;;;21.45;49.28
45731;BME280;31440;48.584;13.460;2023-05-28T07:40:54;96975.63;;;20.89;47.18
45731;BME280;31440;48.584;13.460;2023-05-28T07:44:19;96969.50;;;21.01;45.46
45731;BME280;31440;48.584;13.460;2023-05-28T07:47:24;96981.00;;;21.46;47.93
45731;BME280;31440;48.584;13.460;2023-05-28T07:50:47;96972.28;;;21.57;45.37
45731;BME280;31440;48.584;13.460;2023-05-28T07:54:06;96974.88;;;21.45;42.24
45731;BME280;31440;48.584;13.460;2023-05-28T07:57:11;96973.38;;;21.19;41.85
45731;BME280;31440;48.584;13.460;2023-05-28T08:00:17;96976.03;;;21.88;44.52
45731;BME280;31440;48.584;13.460;2023-05-28T08:03:30;96964.81;;;21.62;44.68
45731;BME280;31440;48.584;13.460;2023-05-28T08:06:38;96972.31;;;22.24;45.31
45731;BME280;31440;48.584;13.460;2023-05-28T08:09:47;96961.81;;;22.44;49.98
45731;BME280;31440;48.584;13.460;2023-05-28T08:12:56;96967.47;;;22.94;43.16
45731;BME280;31440;48.584;13.460;2023-05-28T08:16:02;96965.03;;;22.48;41.36
45731;BME280;31440;48.584;13.460;2023-05-28T08:19:25;96947.13;;;22.95;42.32
45731;BME280;31440;48.584;13.460;2023-05-28T08:22:34;96959.22;;;22.11;39.43
45731;BME280;31440;48.584;13.460;2023-05-28T08:25:39;96954.97;;;22.31;40.19
45731;BME280;31440;48.584;13.460;2023-05-28T08:28:49;96952.78;;;22.90;38.65
45731;BME280;31440;48.584;13.460;2023-05-28T08:31:54;96952.19;;;22.43;41.90
45731;BME280;31440;48.584;13.460;2023-05-28T08:35:12;96947.59;;;23.00;42.01
45731;BME280;31440;48.584;13.460;2023-05-28T08:38:17;96947.53;;;23.11;38.40
45731;BME280;31440;48.584;13.460;2023-05-28T08:41:26;96952.16;;;23.50;40.53
45731;BME280;31440;48.584;13.460;2023-05-28T08:44:31;96943.56;;;24.98;50.18
45731;BME280;31440;48.584;13.460;2023-05-28T08:47:37;96945.03;;;24.02;42.94
45731;BME280;31440;48.584;13.460;2023-05-28T08:50:51;96945.78;;;25.02;43.80
45731;BME280;31440;48.584;13.460;2023-05-28T08:54:09;96937.22;;;23.49;38.07
45731;BME280;31440;48.584;13.460;2023-05-28T08:57:15;96930.91;;;24.51;39.00
45731;BME280;31440;48.584;13.460;2023-05-28T09:00:26;96927.09;;;24.44;36.78
45731;BME280;31440;48.584;13.460;2023-05-28T09:04:01;96929.00;;;24.73;37.45
45731;BME280;31440;48.584;13.460;2023-05-28T09:07:12;96922.31;;;24.88;39.66
45731;BME280;31440;48.584;13.460;2023-05-28T09:10:30;96920.34;;;24.90;33.68
45731;BME280;31440;48.584;13.460;2023-05-28T09:13:40;96912.72;;;24.47;35.97
45731;BME280;31440;48.584;13.460;2023-05-28T09:16:45;96911.31;;;24.23;34.87
45731;BME280;31440;48.584;13.460;2023-05-28T09:19:54;96897.00;;;23.96;33.13
45731;BME280;31440;48.584;13.460;2023-05-28T09:23:01;96897.28;;;25.10;35.66
45731;BME280;31440;48.584;13.460;2023-05-28T09:26:30;96903.59;;;26.57;34.72
45731;BME280;31440;48.584;13.460;2023-05-28T09:29:44;96901.53;;;25.59;34.67
45731;BME280;31440;48.584;13.460;2023-05-28T09:33:02;96902.03;;;26.37;36.84
45731;BME280;31440;48.584;13.460;2023-05-28T09:36:07;96890.53;;;26.36;32.79
45731;BME280;31440;48.584;13.460;2023-05-28T09:39:12;96894.31;;;25.42;33.39
45731;BME280;31440;48.584;13.460;2023-05-28T09:42:19;96890.25;;;27.28;32.81
45731;BME280;31440;48.584;13.460;2023-05-28T09:45:25;96889.03;;;26.06;32.06
45731;BME280;31440;48.584;13.460;2023-05-28T09:48:30;96885.44;;;26.43;32.01
45731;BME280;31440;48.584;13.460;2023-05-28T09:51:35;96886.13;;;28.35;32.65
45731;BME280;31440;48.584;13.460;2023-05-28T09:54:41;96885.31;;;27.93;31.24
45731;BME280;31440;48.584;13.460;2023-05-28T10:01:13;96879.50;;;27.72;31.49
45731;BME280;31440;48.584;13.460;2023-05-28T10:04:22;96876.44;;;27.84;30.47
45731;BME280;31440;48.584;13.460;2023-05-28T10:07:28;96875.84;;;28.49;29.45
45731;BME280;31440;48.584;13.460;2023-05-28T10:10:34;96879.78;;;27.34;32.36
45731;BME280;31440;48.584;13.460;2023-05-28T10:13:39;96877.38;;;28.67;29.71
45731;BME280;31440;48.584;13.460;2023-05-28T10:16:45;96877.22;;;28.85;31.88
45731;BME280;31440;48.584;13.460;2023-05-28T10:19:50;96866.97;;;28.40;29.88
45731;BME280;31440;48.584;13.460;2023-05-28T10:22:55;96871.84;;;28.53;30.64
45731;BME280;31440;48.584;13.460;2023-05-28T10:26:00;96873.53;;;28.94;29.32
45731;BME280;31440;48.584;13.460;2023-05-28T10:29:06;96874.41;;;29.19;30.56
45731;BME280;31440;48.584;13.460;2023-05-28T10:32:15;96866.34;;;30.07;28.51
45731;BME280;31440;48.584;13.460;2023-05-28T10:35:21;96864.25;;;29.86;28.75
45731;BME280;31440;48.584;13.460;2023-05-28T10:38:25;96858.03;;;27.73;27.35
45731;BME280;31440;48.584;13.460;2023-05-28T10:41:33;96864.00;;;29.49;30.60
45731;BME280;31440;48.584;13.460;2023-05-28T10:48:15;96851.16;;;29.44;28.41
45731;BME280;31440;48.584;13.460;2023-05-28T10:51:21;96854.78;;;29.76;28.44
45731;BME280;31440;48.584;13.460;2023-05-28T10:57:51;96849.41;;;31.14;26.96
45731;BME280;31440;48.584;13.460;2023-05-28T11:01:00;96848.03;;;29.88;25.71
45731;BME280;31440;48.584;13.460;2023-05-28T11:04:05;96851.00;;;29.29;29.03
45731;BME280;31440;48.584;13.460;2023-05-28T11:07:12;96846.06;;;30.97;25.85
45731;BME280;31440;48.584;13.460;2023-05-28T11:10:16;96846.06;;;31.35;26.95
45731;BME280;31440;48.584;13.460;2023-05-28T11:13:23;96844.47;;;30.88;26.34
45731;BME280;31440;48.584;13.460;2023-05-28T11:16:31;96834.41;;;32.52;28.07
45731;BME280;31440;48.584;13.460;2023-05-28T11:19:46;96842.66;;;30.35;22.98
45731;BME280;31440;48.584;13.460;2023-05-28T11:22:52;96840.56;;;30.91;25.50
45731;BME280;31440;48.584;13.460;2023-05-28T11:25:57;96828.31;;;31.63;24.20
45731;BME280;31440;48.584;13.460;2023-05-28T11:29:21;96841.19;;;32.12;26.62
45731;BME280;31440;48.584;13.460;2023-05-28T11:32:27;96833.91;;;31.76;26.49
45731;BME280;31440;48.584;13.460;2023-05-28T11:35:32;96823.66;;;30.90;24.64
45731;BME280;31440;48.584;13.460;2023-05-28T11:38:37;96827.47;;;31.63;28.80
45731;BME280;31440;48.584;13.460;2023-05-28T11:41:41;96827.88;;;31.60;26.74
45731;BME280;31440;48.584;13.460;2023-05-28T11:44:47;96829.13;;;30.97;26.94
45731;BME280;31440;48.584;13.460;2023-05-28T11:47:52;96827.16;;;30.91;24.33
45731;BME280;31440;48.584;13.460;2023-05-28T11:50:59;96813.72;;;31.81;25.99
45731;BME280;31440;48.584;13.460;2023-05-28T11:54:05;96808.97;;;32.48;27.16
45731;BME280;31440;48.584;13.460;2023-05-28T11:57:09;96803.00;;;32.17;25.28
45731;BME280;31440;48.584;13.460;2023-05-28T12:00:14;96810.31;;;33.01;27.35
45731;BME280;31440;48.584;13.460;2023-05-28T12:03:25;96803.47;;;32.20;23.06
45731;BME280;31440;48.584;13.460;2023-05-28T12:06:34;96803.28;;;33.00;23.62
45731;BME280;31440;48.584;13.460;2023-05-28T12:09:44;96791.59;;;33.42;24.76
45731;BME280;31440;48.584;13.460;2023-05-28T12:12:51;96792.13;;;33.66;23.50
45731;BME280;31440;48.584;13.460;2023-05-28T12:16:10;96791.63;;;32.93;25.04
45731;BME280;31440;48.584;13.460;2023-05-28T12:19:16;96790.03;;;32.20;26.29
45731;BME280;31440;48.584;13.460;2023-05-28T12:22:20;96798.19;;;33.40;25.93
45731;BME280;31440;48.584;13.460;2023-05-28T12:25:25;96791.91;;;33.05;24.80
45731;BME280;31440;48.584;13.460;2023-05-28T12:28:30;96785.97;;;32.82;24.44
45731;BME280;31440;48.584;13.460;2023-05-28T12:31:36;96783.44;;;33.64;24.78
45731;BME280;31440;48.584;13.460;2023-05-28T12:34:41;96779.09;;;32.58;22.64
45731;BME280;31440;48.584;13.460;2023-05-28T12:37:45;96780.88;;;32.93;19.63
45731;BME280;31440;48.584;13.460;2023-05-28T12:40:50;96781.81;;;32.79;23.91
45731;BME280;31440;48.584;13.460;2023-05-28T12:43:55;96775.38;;;33.01;22.35
45731;BME280;31440;48.584;13.460;2023-05-28T12:47:00;96774.03;;;33.81;22.15
45731;BME280;31440;48.584;13.460;2023-05-28T12:50:05;96771.69;;;34.26;24.56
45731;BME280;31440;48.584;13.460;2023-05-28T12:53:09;96761.78;;;33.37;21.76
45731;BME280;31440;48.584;13.460;2023-05-28T12:56:14;96768.44;;;33.83;22.69
45731;BME280;31440;48.584;13.460;2023-05-28T12:59:27;96767.13;;;34.26;18.66
45731;BME280;31440;48.584;13.460;2023-05-28T13:02:32;96772.06;;;34.16;22.36
45731;BME280;31440;48.584;13.460;2023-05-28T13:05:37;96758.78;;;34.01;20.53
45731;BME280;31440;48.584;13.460;2023-05-28T13:08:41;96749.78;;;33.12;22.55
45731;BME280;31440;48.584;13.460;2023-05-28T13:11:46;96760.91;;;33.71;23.01
45731;BME280;31440;48.584;13.460;2023-05-28T13:14:51;96752.34;;;33.55;21.25
45731;BME280;31440;48.584;13.460;2023-05-28T13:17:55;96741.00;;;32.75;20.98
45731;BME280;31440;48.584;13.460;2023-05-28T13:21:02;96737.31;;;33.04;23.19
45731;BME280;31440;48.584;13.460;2023-05-28T13:24:06;96746.56;;;32.74;22.78
45731;BME280;31440;48.584;13.460;2023-05-28T13:27:11;96733.84;;;34.47;22.37
45731;BME280;31440;48.584;13.460;2023-05-28T13:30:16;96734.97;;;34.05;21.66
45731;BME280;31440;48.584;13.460;2023-05-28T13:33:21;96738.72;;;34.17;22.75
45731;BME280;31440;48.584;13.460;2023-05-28T13:36:25;96734.75;;;33.52;21.87
45731;BME280;31440;48.584;13.460;2023-05-28T13:39:30;96723.16;;;34.06;19.70
45731;BME280;31440;48.584;13.460;2023-05-28T13:42:35;96720.56;;;34.52;21.16
45731;BME280;31440;48.584;13.460;2023-05-28T13:45:40;96712.28;;;34.73;20.53
45731;BME280;31440;48.584;13.460;2023-05-28T13:48:45;96717.13;;;33.91;19.52
45731;BME280;31440;48.584;13.460;2023-05-28T13:51:49;96709.38;;;34.42;19.36
45731;BME280;31440;48.584;13.460;2023-05-28T13:54:54;96716.63;;;34.41;21.05
45731;BME280;31440;48.584;13.460;2023-05-28T13:57:59;96711.25;;;34.55;17.94
45731;BME280;31440;48.584;13.460;2023-05-28T14:01:04;96712.56;;;33.98;19.59
45731;BME280;31440;48.584;13.460;2023-05-28T14:04:09;96705.69;;;33.82;20.91
45731;BME280;31440;48.584;13.460;2023-05-28T14:07:13;96701.91;;;34.37;18.51
45731;BME280;31440;48.584;13.460;2023-05-28T14:10:18;96710.19;;;34.56;22.19
45731;BME280;31440;48.584;13.460;2023-05-28T14:13:23;96694.75;;;33.97;19.60
45731;BME280;31440;48.584;13.460;2023-05-28T14:16:32;96693.91;;;33.96;20.98
45731;BME280;31440;48.584;13.460;2023-05-28T14:19:36;96693.16;;;34.22;21.29
45731;BME280;31440;48.584;13.460;2023-05-28T14:22:41;96687.59;;;34.37;19.98
45731;BME280;31440;48.584;13.460;2023-05-28T14:25:47;96681.16;;;35.04;19.42
45731;BME280;31440;48.584;13.460;2023-05-28T14:28:52;96683.59;;;34.13;19.87
45731;BME280;31440;48.584;13.460;2023-05-28T14:31:57;96676.41;;;34.33;20.75
45731;BME280;31440;48.584;13.460;2023-05-28T14:35:02;96662.66;;;33.34;19.49
45731;BME280;31440;48.584;13.460;2023-05-28T14:38:06;96670.53;;;33.97;20.89
45731;BME280;31440;48.584;13.460;2023-05-28T14:41:11;96675.41;;;32.91;21.79
45731;BME280;31440;48.584;13.460;2023-05-28T14:44:16;96663.66;;;33.81;19.86
45731;BME280;31440;48.584;13.460;2023-05-28T14:47:20;96665.66;;;34.79;21.92
45731;BME280;31440;48.584;13.460;2023-05-28T14:50:25;96669.94;;;34.21;20.65
45731;BME280;31440;48.584;13.460;2023-05-28T14:53:30;96670.75;;;34.02;20.51
45731;BME280;31440;48.584;13.460;2023-05-28T14:56:35;96678.91;;;33.67;20.09
45731;BME280;31440;48.584;13.460;2023-05-28T14:59:40;96668.91;;;34.09;20.12
45731;BME280;31440;48.584;13.460;2023-05-28T15:02:44;96673.03;;;34.18;22.63
45731;BME280;31440;48.584;13.460;2023-05-28T15:05:49;96662.44;;;33.42;23.58
45731;BME280;31440;48.584;13.460;2023-05-28T15:08:54;96669.78;;;34.29;21.90
45731;BME280;31440;48.584;13.460;2023-05-28T15:11:59;96671.59;;;34.15;22.90
45731;BME280;31440;48.584;13.460;2023-05-28T15:15:04;96674.19;;;32.94;22.41
45731;BME280;31440;48.584;13.460;2023-05-28T15:18:09;96674.56;;;32.20;20.47
45731;BME280;31440;48.584;13.460;2023-05-28T15:21:14;96668.81;;;33.28;20.56
45731;BME280;31440;48.584;13.460;2023-05-28T15:24:19;96664.63;;;33.67;20.84
45731;BME280;31440;48.584;13.460;2023-05-28T15:27:23;96668.06;;;33.47;22.94
45731;BME280;31440;48.584;13.460;2023-05-28T15:30:28;96669.78;;;32.86;20.98
45731;BME280;31440;48.584;13.460;2023-05-28T15:33:33;96664.97;;;33.09;22.33
45731;BME280;31440;48.584;13.460;2023-05-28T15:36:38;96662.63;;;32.44;21.42
45731;BME280;31440;48.584;13.460;2023-05-28T15:39:42;96668.63;;;32.03;21.87
45731;BME280;31440;48.584;13.460;2023-05-28T15:42:47;96667.97;;;31.80;22.34
45731;BME280;31440;48.584;13.460;2023-05-28T15:45:54;96671.31;;;31.82;20.86
45731;BME280;31440;48.584;13.460;2023-05-28T15:48:59;96665.75;;;31.03;23.34
45731;BME280;31440;48.584;13.460;2023-05-28T15:52:04;96663.38;;;32.87;21.05
45731;BME280;31440;48.584;13.460;2023-05-28T15:55:09;96663.53;;;31.87;22.16
45731;BME280;31440;48.584;13.460;2023-05-28T15:58:13;96669.91;;;31.35;21.49
45731;BME280;31440;48.584;13.460;2023-05-28T16:01:20;96667.03;;;31.88;21.64
45731;BME280;31440;48.584;13.460;2023-05-28T16:04:28;96663.88;;;30.89;26.26
45731;BME280;31440;48.584;13.460;2023-05-28T16:07:33;96668.06;;;30.77;24.06
45731;BME280;31440;48.584;13.460;2023-05-28T16:10:38;96663.34;;;31.89;23.71
45731;BME280;31440;48.584;13.460;2023-05-28T16:13:45;96662.34;;;30.57;24.06
45731;BME280;31440;48.584;13.460;2023-05-28T16:16:51;96669.97;;;30.08;23.79
45731;BME280;31440;48.584;13.460;2023-05-28T16:19:57;96667.69;;;30.42;23.97
45731;BME280;31440;48.584;13.460;2023-05-28T16:23:02;96675.75;;;29.97;24.76
45731;BME280;31440;48.584;13.460;2023-05-28T16:26:07;96671.66;;;30.32;24.79